Time;durP1;ratioP1;P1;durP2;ratioP2;P2;SDS_P1;SDS_P2;PMS_P1;PMS_P2;Temp;Humidity;BMP_temperature;BMP_pressure;BME280_temperature;BME280_humidity;BME280_pressure;Samples;Min_cycle;Max_cycle;Signal;HPM_P1;HPM_P2
2021/06/28 00:01:54;;;;;;;3.80;3.50;;;21.50;99.90;;;;;;5071021;28;20528;-59
2021/06/28 00:04:21;;;;;;;4.10;3.70;;;21.30;99.90;;;;;;5071086;28;20451;-58
2021/06/28 00:06:48;;;;;;;3.53;3.23;;;21.30;99.90;;;;;;5071499;28;20447;-57
2021/06/28 00:09:15;;;;;;;3.77;3.47;;;21.20;99.90;;;;;;5071041;28;20450;-60
2021/06/28 00:11:44;;;;;;;4.20;3.87;;;21.00;99.90;;;;;;5071024;28;20478;-60
2021/06/28 00:14:11;;;;;;;4.63;4.23;;;20.90;99.90;;;;;;5071755;28;20447;-61
2021/06/28 00:16:38;;;;;;;4.00;3.60;;;20.80;99.90;;;;;;5074881;28;20910;-60
2021/06/28 00:19:05;;;;;;;3.40;3.20;;;20.80;99.90;;;;;;5075325;28;20551;-59
2021/06/28 00:21:38;;;;;;;2.93;2.73;;;20.80;99.90;;;;;;5075021;28;20474;-60
2021/06/28 00:24:06;;;;;;;4.10;3.70;;;20.60;99.90;;;;;;5074973;28;20501;-58
2021/06/28 00:26:36;;;;;;;3.73;3.43;;;20.60;99.90;;;;;;5075180;28;20443;-58
2021/06/28 00:29:05;;;;;;;5.50;3.93;;;20.60;99.90;;;;;;5074764;28;20534;-60
2021/06/28 00:31:32;;;;;;;3.20;3.00;;;20.70;99.90;;;;;;5074606;28;20467;-59
2021/06/28 00:34:01;;;;;;;3.30;3.00;;;20.60;99.90;;;;;;5073782;28;20447;-59
2021/06/28 00:36:28;;;;;;;3.80;3.50;;;20.60;99.90;;;;;;5074933;28;20508;-59
2021/06/28 00:38:55;;;;;;;3.10;2.90;;;20.50;99.90;;;;;;5074491;28;20944;-59
2021/06/28 00:41:22;;;;;;;3.00;2.70;;;20.60;99.90;;;;;;5074694;28;20537;-59
2021/06/28 00:43:49;;;;;;;3.63;3.33;;;20.50;99.90;;;;;;5074333;28;20450;-58
2021/06/28 00:46:18;;;;;;;3.30;3.10;;;20.50;99.90;;;;;;5074694;28;20500;-59
2021/06/28 00:48:45;;;;;;;3.30;3.10;;;20.50;99.90;;;;;;5074421;28;20871;-59
2021/06/28 00:51:12;;;;;;;2.97;2.77;;;20.60;99.90;;;;;;5074638;28;20475;-58
2021/06/28 00:53:39;;;;;;;2.63;2.50;;;20.60;99.90;;;;;;5074054;28;20504;-59
2021/06/28 00:56:12;;;;;;;4.60;3.20;;;20.60;99.90;;;;;;5074369;28;20540;-59
2021/06/28 00:58:40;;;;;;;3.00;2.80;;;20.60;99.90;;;;;;5074581;28;20816;-60
2021/06/28 01:01:08;;;;;;;3.10;2.90;;;20.80;99.90;;;;;;5074307;28;20466;-59
2021/06/28 01:03:37;;;;;;;3.33;3.10;;;21.00;99.90;;;;;;5074035;28;20450;-59
2021/06/28 01:06:04;;;;;;;4.23;2.80;;;20.90;99.90;;;;;;5074361;28;20488;-59
2021/06/28 01:08:31;;;;;;;5.03;3.37;;;21.10;99.90;;;;;;5074029;28;20462;-59
2021/06/28 01:10:58;;;;;;;3.40;3.07;;;21.20;99.90;;;;;;5073549;28;20532;-60
2021/06/28 01:13:26;;;;;;;3.53;3.23;;;21.30;99.90;;;;;;5073446;28;20456;-59
2021/06/28 01:15:54;;;;;;;3.40;3.20;;;21.20;99.90;;;;;;5074241;28;20480;-59
2021/06/28 01:18:22;;;;;;;4.80;3.70;;;21.20;99.90;;;;;;5073933;28;20447;-60
2021/06/28 01:20:50;;;;;;;4.93;3.80;;;21.10;99.90;;;;;;5073883;28;21050;-60
2021/06/28 01:23:23;;;;;;;3.53;3.23;;;20.90;99.90;;;;;;5073435;28;20447;-59
2021/06/28 01:25:53;;;;;;;3.40;3.17;;;20.80;99.90;;;;;;5073370;28;20516;-59
2021/06/28 01:28:21;;;;;;;4.20;3.80;;;20.80;99.90;;;;;;5073608;28;20451;-60
2021/06/28 01:30:49;;;;;;;8.13;3.80;;;20.70;99.90;;;;;;5073637;28;20466;-59
2021/06/28 01:33:17;;;;;;;3.73;3.43;;;20.70;99.90;;;;;;5073405;28;20451;-59
2021/06/28 01:35:44;;;;;;;5.20;3.70;;;20.60;99.90;;;;;;5073260;28;20486;-60
2021/06/28 01:38:11;;;;;;;4.17;3.87;;;20.60;99.90;;;;;;5073340;28;20454;-60
2021/06/28 01:40:40;;;;;;;3.80;3.50;;;20.70;99.90;;;;;;5073336;28;20527;-59
2021/06/28 01:43:07;;;;;;;3.83;3.50;;;20.70;99.90;;;;;;5073501;28;20524;-60
2021/06/28 01:45:36;;;;;;;4.30;3.57;;;20.60;99.90;;;;;;5073517;28;20454;-60
2021/06/28 01:48:03;;;;;;;3.90;3.60;;;20.60;99.90;;;;;;5053543;28;20456;-59
2021/06/28 01:50:33;;;;;;;4.07;3.67;;;20.60;99.90;;;;;;5056893;28;20466;-60
2021/06/28 01:53:01;;;;;;;4.87;3.33;;;20.70;99.90;;;;;;5073393;28;20504;-60
2021/06/28 01:55:28;;;;;;;4.10;3.70;;;20.60;99.90;;;;;;5073444;28;20501;-60
2021/06/28 01:57:59;;;;;;;4.10;3.80;;;20.60;99.90;;;;;;5072917;28;20470;-60
2021/06/28 02:00:28;;;;;;;3.70;3.30;;;20.60;99.90;;;;;;5073234;28;20480;-61
2021/06/28 02:03:03;;;;;;;3.83;3.53;;;20.60;99.90;;;;;;5072934;28;20500;-60
2021/06/28 02:05:33;;;;;;;3.47;3.17;;;20.70;99.90;;;;;;5073328;28;20453;-60
2021/06/28 02:08:00;;;;;;;4.63;3.40;;;20.70;99.90;;;;;;5072659;28;20450;-60
2021/06/28 02:10:27;;;;;;;3.50;3.30;;;20.70;99.90;;;;;;5072626;28;20483;-60
2021/06/28 02:12:56;;;;;;;3.70;3.43;;;20.70;99.90;;;;;;5072523;28;20454;-60
2021/06/28 02:15:26;;;;;;;3.77;3.47;;;20.60;99.90;;;;;;5072981;28;20447;-59
2021/06/28 02:17:53;;;;;;;3.80;3.37;;;20.70;99.90;;;;;;5072516;28;20545;-59
2021/06/28 02:20:21;;;;;;;3.60;3.40;;;20.60;99.90;;;;;;5072607;28;20494;-60
2021/06/28 02:22:50;;;;;;;3.70;3.37;;;20.60;99.90;;;;;;5072557;28;20516;-60
2021/06/28 02:25:18;;;;;;;4.70;3.77;;;20.60;99.90;;;;;;5072783;28;20900;-59
2021/06/28 02:27:46;;;;;;;4.73;3.60;;;20.50;99.90;;;;;;5072506;28;20446;-60
2021/06/28 02:30:18;;;;;;;4.57;3.63;;;20.30;99.90;;;;;;5072435;28;20482;-60
2021/06/28 02:32:45;;;;;;;5.30;4.07;;;20.30;99.90;;;;;;5072273;28;20962;-60
2021/06/28 02:35:14;;;;;;;4.00;3.00;;;20.30;99.90;;;;;;5072714;28;20450;-59
2021/06/28 02:37:42;;;;;;;4.23;3.83;;;20.10;99.90;;;;;;5071520;28;20486;-59
2021/06/28 02:40:12;;;;;;;3.50;3.20;;;19.70;99.90;;;;;;5071987;28;20833;-60
2021/06/28 02:42:39;;;;;;;3.77;3.37;;;19.80;99.90;;;;;;5072530;28;20451;-60
2021/06/28 02:45:08;;;;;;;3.87;3.47;;;19.90;99.90;;;;;;5072452;28;20542;-59
2021/06/28 02:47:37;;;;;;;3.33;3.00;;;20.00;99.90;;;;;;5072132;28;20451;-60
2021/06/28 02:50:07;;;;;;;4.47;2.77;;;20.00;99.90;;;;;;5071949;28;20447;-59
2021/06/28 02:52:34;;;;;;;3.30;3.10;;;19.80;99.90;;;;;;5071947;28;20477;-59
2021/06/28 02:55:01;;;;;;;3.23;3.03;;;19.90;99.90;;;;;;5072143;28;20450;-60
2021/06/28 02:57:28;;;;;;;3.20;3.00;;;19.90;99.90;;;;;;5072100;28;20489;-59
2021/06/28 02:59:55;;;;;;;3.20;3.00;;;20.00;99.90;;;;;;5071265;28;20512;-59
2021/06/28 03:02:22;;;;;;;3.47;3.23;;;20.00;99.90;;;;;;5072041;28;20447;-59
2021/06/28 03:04:51;;;;;;;3.37;3.07;;;20.10;99.90;;;;;;5072165;28;20450;-60
2021/06/28 03:07:18;;;;;;;3.50;3.20;;;20.10;99.90;;;;;;5071833;28;20656;-59
2021/06/28 03:09:45;;;;;;;3.33;3.03;;;20.10;99.90;;;;;;5071633;28;20550;-59
2021/06/28 03:12:13;;;;;;;3.20;2.90;;;20.10;99.90;;;;;;5071336;28;20825;-59
2021/06/28 03:14:40;;;;;;;3.43;3.13;;;20.00;99.90;;;;;;5072112;28;20534;-60
2021/06/28 03:17:07;;;;;;;3.67;3.37;;;20.10;99.90;;;;;;5071722;28;20486;-59
2021/06/28 03:19:34;;;;;;;4.50;3.53;;;20.00;99.90;;;;;;5071320;28;20451;-59
2021/06/28 03:22:03;;;;;;;3.50;3.30;;;20.00;99.90;;;;;;5071389;28;20473;-58
2021/06/28 03:24:30;;;;;;;3.73;3.43;;;20.00;99.90;;;;;;5072057;28;20462;-59
2021/06/28 03:26:57;;;;;;;3.60;3.30;;;20.00;99.90;;;;;;5071532;28;20797;-59
2021/06/28 03:29:24;;;;;;;3.77;3.47;;;20.00;99.90;;;;;;5071486;28;20450;-60
2021/06/28 03:31:52;;;;;;;3.57;3.27;;;19.90;99.90;;;;;;5071542;28;20467;-59
2021/06/28 03:34:19;;;;;;;3.57;3.27;;;19.90;99.90;;;;;;5071850;28;20455;-59
2021/06/28 03:36:46;;;;;;;4.67;4.20;;;19.80;99.90;;;;;;5071441;28;20475;-59
2021/06/28 03:39:14;;;;;;;7.37;4.10;;;19.80;99.90;;;;;;5071413;28;20455;-59
2021/06/28 03:41:44;;;;;;;4.40;4.00;;;19.80;99.90;;;;;;5071199;28;20471;-60
2021/06/28 03:44:11;;;;;;;4.50;4.10;;;19.80;99.90;;;;;;5071914;28;20520;-59
2021/06/28 03:46:38;;;;;;;4.57;4.17;;;19.80;99.90;;;;;;5071500;28;20451;-59
2021/06/28 03:49:05;;;;;;;5.00;4.50;;;19.80;99.90;;;;;;5071304;28;20451;-59
2021/06/28 03:51:32;;;;;;;5.20;4.70;;;19.80;99.90;;;;;;5071138;28;21169;-59
2021/06/28 03:54:00;;;;;;;5.03;4.57;;;19.80;99.90;;;;;;5071053;28;20497;-59
2021/06/28 03:56:28;;;;;;;5.27;4.77;;;19.80;99.90;;;;;;5071159;28;20474;-59
2021/06/28 03:58:55;;;;;;;5.00;4.60;;;19.80;99.90;;;;;;5071005;28;20945;-59
2021/06/28 04:01:22;;;;;;;5.40;4.60;;;19.80;99.90;;;;;;5071395;28;20467;-59
2021/06/28 04:03:51;;;;;;;7.90;5.23;;;19.90;99.90;;;;;;5071417;28;20936;-60
2021/06/28 04:06:18;;;;;;;5.20;4.47;;;20.00;99.90;;;;;;5066104;28;20478;-59
2021/06/28 04:08:45;;;;;;;5.20;4.67;;;20.00;99.90;;;;;;5070826;28;20949;-60
2021/06/28 04:11:12;;;;;;;5.70;4.60;;;20.00;99.90;;;;;;5070454;28;20477;-59
2021/06/28 04:13:41;;;;;;;4.67;4.00;;;20.00;99.90;;;;;;5070849;28;20443;-60
2021/06/28 04:16:08;;;;;;;5.67;4.60;;;20.00;99.90;;;;;;5070705;28;20504;-59
2021/06/28 04:18:35;;;;;;;4.47;4.17;;;20.00;99.90;;;;;;5069157;28;20501;-59
2021/06/28 04:21:02;;;;;;;6.40;4.70;;;20.00;99.90;;;;;;5070679;28;20882;-60
2021/06/28 04:23:29;;;;;;;4.30;4.00;;;20.10;99.90;;;;;;5070441;28;20505;-59
2021/06/28 04:25:56;;;;;;;4.57;4.17;;;20.20;99.90;;;;;;5070496;28;20443;-60
2021/06/28 04:28:23;;;;;;;5.80;5.27;;;20.30;99.90;;;;;;5070640;28;20516;-59
2021/06/28 04:30:51;;;;;;;4.20;3.90;;;20.40;99.90;;;;;;5070733;28;20462;-60
2021/06/28 04:33:18;;;;;;;5.33;4.83;;;20.30;99.90;;;;;;5070520;28;20592;-59
2021/06/28 04:35:45;;;;;;;4.97;4.57;;;20.30;99.90;;;;;;5070686;28;20439;-59
2021/06/28 04:38:12;;;;;;;5.60;5.10;;;20.40;99.90;;;;;;5070162;28;20995;-59
2021/06/28 04:40:39;;;;;;;4.87;4.47;;;20.50;99.90;;;;;;5070787;28;20477;-59
2021/06/28 04:43:06;;;;;;;4.80;4.40;;;20.50;99.90;;;;;;5070575;28;20456;-59
2021/06/28 04:45:33;;;;;;;6.90;5.10;;;20.60;99.90;;;;;;5070612;28;20451;-59
2021/06/28 04:48:02;;;;;;;4.83;4.43;;;20.60;99.90;;;;;;5070092;28;20447;-59
2021/06/28 04:50:29;;;;;;;5.17;4.27;;;20.80;99.90;;;;;;5070270;28;20587;-60
2021/06/28 04:52:57;;;;;;;4.77;4.37;;;20.90;99.90;;;;;;5070334;28;20608;-59
2021/06/28 04:55:25;;;;;;;5.20;4.70;;;21.00;99.90;;;;;;5067380;28;20505;-60
2021/06/28 04:57:55;;;;;;;5.30;4.80;;;21.10;99.90;;;;;;5069698;28;20524;-60
2021/06/28 05:00:24;;;;;;;4.57;4.17;;;21.10;99.90;;;;;;5070267;28;20464;-59
2021/06/28 05:02:51;;;;;;;4.87;4.47;;;21.30;99.90;;;;;;5072049;28;20450;-59
2021/06/28 05:05:20;;;;;;;6.20;4.60;;;21.60;99.90;;;;;;5072523;28;20533;-59
2021/06/28 05:07:47;;;;;;;4.50;4.10;;;22.00;99.90;;;;;;5072800;28;20864;-59
2021/06/28 05:10:15;;;;;;;9.20;4.00;;;22.70;99.90;;;;;;5071155;28;20475;-60
2021/06/28 05:12:44;;;;;;;4.40;4.00;;;23.40;99.90;;;;;;5073882;28;20446;-60
2021/06/28 05:15:13;;;;;;;4.87;3.53;;;24.20;99.90;;;;;;5067238;28;20493;-58
2021/06/28 05:17:40;;;;;;;4.13;3.73;;;25.00;99.90;;;;;;5071722;28;20475;-59
2021/06/28 05:20:11;;;;;;;5.83;3.77;;;25.80;99.90;;;;;;5071815;28;20522;-59
2021/06/28 05:22:40;;;;;;;4.40;3.63;;;26.30;99.90;;;;;;5072577;28;20434;-59
2021/06/28 05:25:09;;;;;;;4.57;3.80;;;26.60;99.90;;;;;;5072554;28;20447;-59
2021/06/28 05:27:37;;;;;;;4.70;3.50;;;27.00;99.90;;;;;;5068846;28;20442;-59
2021/06/28 05:30:08;;;;;;;6.80;4.30;;;27.30;99.90;;;;;;5072483;28;20496;-59
2021/06/28 05:32:36;;;;;;;3.87;3.57;;;27.60;99.90;;;;;;5072037;28;20967;-58
2021/06/28 05:35:04;;;;;;;4.33;3.67;;;27.50;99.90;;;;;;5071503;28;20447;-59
2021/06/28 05:37:31;;;;;;;4.90;4.40;;;27.70;99.90;;;;;;5069452;28;21218;-58
2021/06/28 05:39:59;;;;;;;5.40;4.33;;;28.10;99.90;;;;;;5097149;22;20497;-51
2021/06/28 05:42:27;;;;;;;4.50;4.10;;;28.30;99.90;;;;;;5073988;28;20524;-51
2021/06/28 05:44:54;;;;;;;7.80;4.00;;;28.30;99.90;;;;;;5075152;28;20908;-51
2021/06/28 05:47:23;;;;;;;4.63;4.23;;;28.30;99.90;;;;;;5066153;28;20439;-51
2021/06/28 05:49:50;;;;;;;4.33;4.00;;;28.30;99.90;;;;;;5068002;28;20550;-51
2021/06/28 05:52:20;;;;;;;4.20;3.90;;;28.60;99.90;;;;;;5071566;28;20841;-51
2021/06/28 05:54:48;;;;;;;4.27;3.80;;;28.90;99.90;;;;;;5071914;28;20533;-51
2021/06/28 05:57:19;;;;;;;4.50;4.10;;;29.00;99.90;;;;;;5072141;28;20482;-51
2021/06/28 05:59:46;;;;;;;4.00;3.70;;;29.00;99.90;;;;;;5071407;28;20479;-51
2021/06/28 06:02:14;;;;;;;4.80;4.40;;;29.40;99.90;;;;;;5070202;28;20455;-51
2021/06/28 06:04:42;;;;;;;3.97;3.67;;;29.40;99.90;;;;;;5073274;28;20451;-51
2021/06/28 06:07:09;;;;;;;4.37;4.07;;;29.30;99.90;;;;;;5073245;28;20462;-51
2021/06/28 06:09:37;;;;;;;4.50;4.10;;;28.90;99.90;;;;;;5072227;28;20520;-51
2021/06/28 06:12:06;;;;;;;4.50;4.20;;;29.30;99.90;;;;;;5073022;28;20451;-52
2021/06/28 06:14:34;;;;;;;4.53;4.03;;;29.80;99.90;;;;;;5073055;28;20878;-51
2021/06/28 06:17:01;;;;;;;4.40;4.00;;;29.80;99.90;;;;;;5073206;28;20450;-51
2021/06/28 06:19:28;;;;;;;4.70;4.40;;;30.10;99.90;;;;;;5068875;28;20455;-51
2021/06/28 06:21:55;;;;;;;5.00;4.60;;;30.30;99.90;;;;;;5053324;28;20941;-52
2021/06/28 06:24:27;;;;;;;5.40;4.20;;;29.90;99.90;;;;;;5067242;28;20489;-50
2021/06/28 06:26:54;;;;;;;8.13;4.33;;;30.40;99.90;;;;;;5067880;28;20472;-52
2021/06/28 06:29:21;;;;;;;4.50;4.10;;;30.10;99.90;;;;;;5073002;28;20497;-51
2021/06/28 06:31:49;;;;;;;4.43;4.03;;;30.00;99.90;;;;;;5072443;28;20947;-51
2021/06/28 06:34:16;;;;;;;4.67;4.30;;;29.90;99.90;;;;;;5072969;28;20971;-51
2021/06/28 06:36:44;;;;;;;4.50;4.10;;;29.90;99.90;;;;;;5073057;28;20520;-52
2021/06/28 06:39:11;;;;;;;4.80;4.40;;;30.00;99.90;;;;;;5090108;28;20529;-51
2021/06/28 06:41:40;;;;;;;4.67;4.23;;;30.20;99.90;;;;;;5083434;28;20544;-51
2021/06/28 06:44:07;;;;;;;4.23;3.93;;;30.40;99.90;;;;;;5075456;28;20497;-52
2021/06/28 06:46:38;;;;;;;4.63;4.27;;;30.60;99.90;;;;;;5058957;28;20843;-51
2021/06/28 06:49:08;;;;;;;5.83;4.40;;;30.50;99.90;;;;;;5053324;28;20436;-51
2021/06/28 06:51:35;;;;;;;4.63;4.23;;;30.70;99.90;;;;;;5067255;28;20466;-52
2021/06/28 06:54:02;;;;;;;5.03;4.63;;;31.30;99.90;;;;;;5072044;28;20447;-52
2021/06/28 06:56:29;;;;;;;4.97;4.50;;;31.10;99.90;;;;;;5072350;28;20942;-51
2021/06/28 06:58:56;;;;;;;5.90;4.40;;;30.70;99.90;;;;;;5071776;28;20482;-52
2021/06/28 07:01:23;;;;;;;4.97;4.67;;;30.80;99.90;;;;;;5068371;28;20467;-51
2021/06/28 07:03:51;;;;;;;5.10;4.60;;;31.30;99.90;;;;;;5063702;28;20446;-52
2021/06/28 07:06:20;;;;;;;4.83;4.40;;;31.30;99.90;;;;;;5071714;28;20200;-51
2021/06/28 07:08:47;;;;;;;5.20;4.80;;;31.00;99.90;;;;;;5072250;28;20447;-52
2021/06/28 07:11:14;;;;;;;4.90;4.50;;;31.00;99.90;;;;;;5072087;28;20474;-51
2021/06/28 07:13:42;;;;;;;4.70;4.40;;;30.90;99.90;;;;;;5071341;28;20462;-52
2021/06/28 07:16:10;;;;;;;4.53;4.23;;;30.50;99.90;;;;;;5072423;28;20497;-51
2021/06/28 07:18:37;;;;;;;5.17;4.77;;;30.00;99.90;;;;;;5072127;28;20490;-51
2021/06/28 07:21:05;;;;;;;5.27;4.77;;;29.20;99.90;;;;;;5071939;28;20513;-52
2021/06/28 07:23:33;;;;;;;5.63;5.13;;;29.20;99.90;;;;;;5071459;28;20446;-52
2021/06/28 07:26:01;;;;;;;5.07;4.73;;;29.30;99.90;;;;;;5072120;28;20450;-52
2021/06/28 07:28:29;;;;;;;4.73;4.43;;;29.70;99.90;;;;;;5071991;28;20454;-52
2021/06/28 07:30:58;;;;;;;5.33;4.93;;;30.50;99.90;;;;;;5071484;28;20481;-52
2021/06/28 07:33:25;;;;;;;5.70;5.20;;;31.00;99.90;;;;;;5071508;28;20902;-52
2021/06/28 07:35:52;;;;;;;4.57;4.27;;;31.30;99.90;;;;;;5071720;28;20443;-52
2021/06/28 07:38:19;;;;;;;4.93;4.53;;;32.00;99.90;;;;;;5071263;28;20474;-52
2021/06/28 07:40:48;;;;;;;5.03;4.73;;;32.60;99.90;;;;;;5069808;28;20486;-52
2021/06/28 07:43:16;;;;;;;5.23;4.80;;;32.50;99.90;;;;;;5063088;28;20451;-52
2021/06/28 07:45:44;;;;;;;4.93;4.50;;;32.80;99.90;;;;;;5071631;28;20465;-52
2021/06/28 07:48:11;;;;;;;7.10;5.00;;;33.00;99.90;;;;;;5070507;28;20467;-52
2021/06/28 07:50:38;;;;;;;4.70;4.40;;;32.90;99.90;;;;;;5071197;28;20886;-52
2021/06/28 07:53:05;;;;;;;5.10;4.80;;;33.10;99.90;;;;;;5071936;28;20493;-52
2021/06/28 07:55:32;;;;;;;5.33;4.70;;;33.00;99.90;;;;;;5071628;28;20447;-52
2021/06/28 07:58:00;;;;;;;4.90;4.50;;;32.70;99.90;;;;;;5071518;28;20478;-52
2021/06/28 08:00:27;;;;;;;7.73;5.20;;;33.20;99.90;;;;;;5064974;28;20474;-52
2021/06/28 08:02:54;;;;;;;5.30;4.90;;;33.60;99.90;;;;;;5071718;28;20496;-52
2021/06/28 08:05:21;;;;;;;4.57;4.27;;;33.50;99.90;;;;;;5072012;28;20508;-52
2021/06/28 08:07:48;;;;;;;4.53;4.13;;;33.90;99.90;;;;;;5071771;28;20497;-52
2021/06/28 08:10:16;;;;;;;5.43;4.93;;;33.80;99.90;;;;;;5071259;28;20474;-52
2021/06/28 08:12:44;;;;;;;4.90;4.60;;;33.40;99.90;;;;;;5071303;28;20997;-52
2021/06/28 08:15:15;;;;;;;4.50;4.20;;;33.60;99.90;;;;;;5071621;28;20454;-52
2021/06/28 08:17:42;;;;;;;18.63;6.03;;;33.80;99.90;;;;;;5071549;28;20513;-52
2021/06/28 08:20:10;;;;;;;7.73;4.80;;;33.80;99.90;;;;;;5071287;28;20837;-52
2021/06/28 08:22:38;;;;;;;5.40;4.90;;;33.80;99.90;;;;;;5071169;28;20455;-52
2021/06/28 08:25:06;;;;;;;5.20;4.80;;;33.40;99.90;;;;;;5071735;28;20447;-52
2021/06/28 08:27:33;;;;;;;7.03;4.50;;;33.90;99.80;;;;;;5071044;28;20447;-52
2021/06/28 08:30:00;;;;;;;5.20;4.80;;;34.30;99.90;;;;;;5070809;28;20501;-52
2021/06/28 08:32:28;;;;;;;5.80;5.30;;;34.40;99.60;;;;;;5071537;28;20466;-52
2021/06/28 08:34:56;;;;;;;6.63;4.93;;;34.40;99.70;;;;;;5072022;28;20458;-52
2021/06/28 08:37:23;;;;;;;5.63;5.10;;;34.70;99.90;;;;;;5074213;28;20454;-52
2021/06/28 08:39:50;;;;;;;5.40;4.90;;;34.50;99.90;;;;;;5074949;28;20535;-52
2021/06/28 08:42:18;;;;;;;5.07;4.70;;;34.70;99.90;;;;;;5075301;28;20451;-52
2021/06/28 08:44:46;;;;;;;7.53;5.40;;;33.20;99.90;;;;;;5075512;28;20459;-52
2021/06/28 08:47:13;;;;;;;5.20;4.70;;;33.30;99.90;;;;;;5074781;28;20500;-52
2021/06/28 08:49:44;;;;;;;5.40;4.60;;;33.40;99.90;;;;;;5074491;28;20915;-52
2021/06/28 08:52:11;;;;;;;4.93;4.63;;;33.60;99.90;;;;;;5074357;28;20450;-52
2021/06/28 08:54:38;;;;;;;6.07;5.13;;;34.00;99.90;;;;;;5074805;28;20450;-52
2021/06/28 08:57:05;;;;;;;16.37;7.87;;;33.70;99.90;;;;;;5074824;28;20886;-52
2021/06/28 08:59:32;;;;;;;10.27;6.37;;;33.00;99.90;;;;;;5074250;28;20528;-52
2021/06/28 09:01:59;;;;;;;5.67;5.00;;;32.20;99.90;;;;;;5074161;28;20500;-52
2021/06/28 09:04:26;;;;;;;5.50;5.03;;;32.30;99.90;;;;;;5076391;28;20506;-52
2021/06/28 09:07:15;;;;;;;8.87;5.10;;;32.90;99.90;;;;;;5076096;28;20504;-52
2021/06/28 09:09:41;;;;;;;5.13;4.73;;;33.60;99.90;;;;;;5086103;28;20462;-52
2021/06/28 09:12:14;;;;;;;8.17;5.00;;;33.40;99.90;;;;;;5075180;28;20864;-52
2021/06/28 09:14:46;;;;;;;10.93;6.33;;;33.60;99.90;;;;;;5074792;28;20813;-52
2021/06/28 09:17:25;;;;;;;30.03;8.70;;;33.40;99.90;;;;;;5059256;28;20455;-52
2021/06/28 09:20:14;;;;;;;18.37;8.63;;;34.00;99.90;;;;;;5072984;28;20509;-52
2021/06/28 09:22:43;;;;;;;5.23;4.80;;;34.50;99.90;;;;;;5071906;28;21009;-52
2021/06/28 09:25:29;;;;;;;5.47;4.97;;;34.00;99.90;;;;;;5073032;28;20492;-52
2021/06/28 09:27:56;;;;;;;5.10;4.77;;;33.90;99.90;;;;;;5072663;28;20884;-52
2021/06/28 09:30:23;;;;;;;5.80;5.20;;;34.30;99.90;;;;;;5072178;28;20471;-52
2021/06/28 09:32:56;;;;;;;5.30;4.53;;;33.80;99.90;;;;;;5072170;28;20793;-52
2021/06/28 09:35:31;;;;;;;5.20;4.80;;;33.90;99.90;;;;;;5072526;28;20924;-52
2021/06/28 09:38:02;;;;;;;13.13;6.97;;;34.30;99.90;;;;;;5072265;28;20441;-52
2021/06/28 09:40:29;;;;;;;4.80;4.40;;;34.90;99.90;;;;;;5072195;28;20470;-52
2021/06/28 09:42:56;;;;;;;4.80;4.40;;;35.40;97.40;;;;;;5071922;28;20439;-52
2021/06/28 09:45:24;;;;;;;5.10;4.57;;;35.20;96.20;;;;;;5071838;28;20443;-52
2021/06/28 09:47:52;;;;;;;4.87;4.37;;;35.30;95.00;;;;;;5071918;28;20825;-51
2021/06/28 09:50:20;;;;;;;5.17;4.80;;;35.70;95.00;;;;;;5060305;28;20909;-52
2021/06/28 09:52:51;;;;;;;4.80;4.40;;;35.90;93.80;;;;;;5053491;28;20504;-52
2021/06/28 09:55:25;;;;;;;4.70;4.50;;;36.20;94.90;;;;;;5053736;28;20447;-54
2021/06/28 09:58:13;;;;;;;4.70;4.40;;;36.40;95.60;;;;;;5091342;28;20498;-52
2021/06/28 10:00:42;;;;;;;4.93;4.53;;;36.30;94.60;;;;;;5078277;28;20478;-52
2021/06/28 10:03:27;;;;;;;5.43;5.10;;;35.80;92.60;;;;;;5074878;28;21000;-52
2021/06/28 10:06:00;;;;;;;5.00;4.70;;;35.50;95.20;;;;;;5076700;28;20960;-52
2021/06/28 10:08:32;;;;;;;4.93;4.30;;;35.40;97.20;;;;;;5093936;28;20433;-52
2021/06/28 10:11:13;;;;;;;5.10;4.80;;;35.40;95.40;;;;;;5075952;28;20823;-52
2021/06/28 10:13:40;;;;;;;5.07;4.77;;;34.70;94.80;;;;;;5073248;28;20447;-52
2021/06/28 10:16:09;;;;;;;4.70;4.40;;;33.80;97.10;;;;;;5076479;28;20452;-52
2021/06/28 10:18:36;;;;;;;5.60;5.10;;;33.60;99.00;;;;;;5093199;28;20477;-52
2021/06/28 10:21:03;;;;;;;4.93;4.53;;;33.40;96.50;;;;;;5075288;28;20471;-52
2021/06/28 10:23:30;;;;;;;5.30;4.90;;;33.80;96.90;;;;;;5076592;28;20454;-52
2021/06/28 10:25:58;;;;;;;5.90;4.93;;;34.60;94.00;;;;;;5093046;28;20533;-52
2021/06/28 10:28:26;;;;;;;5.87;5.37;;;34.30;94.30;;;;;;5093289;28;20437;-52
2021/06/28 10:30:54;;;;;;;7.60;4.90;;;34.60;94.00;;;;;;5078712;28;20523;-52
2021/06/28 10:33:23;;;;;;;4.93;4.63;;;35.10;97.00;;;;;;5075626;28;20456;-52
2021/06/28 10:35:59;;;;;;;7.07;5.30;;;35.50;94.90;;;;;;5071305;28;20470;-52
2021/06/28 10:38:42;;;;;;;4.77;4.43;;;35.40;94.50;;;;;;5070191;28;20438;-52
2021/06/28 10:41:09;;;;;;;5.10;4.70;;;35.50;94.80;;;;;;5051978;28;20479;-52
2021/06/28 10:43:38;;;;;;;5.30;4.90;;;34.80;93.00;;;;;;5051857;28;20450;-52
2021/06/28 10:46:07;;;;;;;5.27;4.97;;;34.80;94.40;;;;;;5052239;28;20500;-52
2021/06/28 10:48:45;;;;;;;5.70;5.20;;;34.80;93.80;;;;;;5051876;28;20444;-52
2021/06/28 10:51:13;;;;;;;5.10;4.80;;;34.70;94.70;;;;;;5068425;28;20474;-52
2021/06/28 10:54:19;;;;;;;5.30;4.80;;;35.10;95.50;;;;;;5068178;28;20437;-51
2021/06/28 10:56:54;;;;;;;6.93;5.33;;;34.30;95.00;;;;;;5070241;28;20735;-52
2021/06/28 10:59:31;;;;;;;5.87;5.37;;;34.30;95.90;;;;;;5069265;28;20486;-50
2021/06/28 11:02:08;;;;;;;5.70;5.30;;;33.80;92.30;;;;;;5070628;28;20442;-51
2021/06/28 11:04:36;;;;;;;6.13;5.73;;;33.50;93.50;;;;;;5070756;28;20447;-51
2021/06/28 11:07:09;;;;;;;5.53;5.23;;;33.20;95.20;;;;;;5070974;28;20496;-51
2021/06/28 11:09:39;;;;;;;5.60;5.20;;;33.00;95.20;;;;;;5053855;28;20441;-51
2021/06/28 11:12:08;;;;;;;6.50;6.00;;;32.70;93.80;;;;;;5067599;28;20504;-51
2021/06/28 11:14:50;;;;;;;6.13;5.60;;;32.60;96.60;;;;;;5073019;28;20476;-51
2021/06/28 11:17:22;;;;;;;6.33;5.80;;;32.50;97.00;;;;;;5073005;28;20512;-51
2021/06/28 11:20:02;;;;;;;5.53;5.13;;;32.80;96.50;;;;;;5072264;28;20494;-52
2021/06/28 11:22:44;;;;;;;8.17;4.80;;;33.10;97.70;;;;;;5073205;28;20442;-51
2021/06/28 11:25:36;;;;;;;4.87;4.57;;;32.20;99.20;;;;;;5072552;28;20937;-50
2021/06/28 11:28:37;;;;;;;5.50;5.00;;;30.90;98.80;;;;;;5071737;28;20516;-51
2021/06/28 11:31:08;;;;;;;5.33;4.93;;;30.40;99.90;;;;;;5072120;28;20512;-51
2021/06/28 11:33:40;;;;;;;5.40;5.00;;;30.70;99.90;;;;;;5072795;28;20451;-51
2021/06/28 11:36:46;;;;;;;9.57;5.17;;;31.20;99.90;;;;;;5072357;28;20458;-51
2021/06/28 11:39:28;;;;;;;5.30;5.00;;;30.90;99.90;;;;;;5072227;28;20477;-51
2021/06/28 11:42:17;;;;;;;5.47;4.97;;;30.70;99.90;;;;;;5076851;22;20495;-55
2021/06/28 11:44:50;;;;;;;5.93;5.33;;;30.60;99.90;;;;;;5051572;28;20455;-54
2021/06/28 11:47:18;;;;;;;5.67;5.27;;;30.30;99.90;;;;;;5051327;28;20894;-54
2021/06/28 11:49:45;;;;;;;5.90;4.97;;;30.50;99.90;;;;;;5050688;28;21090;-54
2021/06/28 11:52:15;;;;;;;5.80;5.30;;;30.60;99.90;;;;;;5051010;28;21035;-55
2021/06/28 11:54:43;;;;;;;5.90;5.40;;;30.40;99.90;;;;;;5051120;28;20451;-54
2021/06/28 11:57:10;;;;;;;6.00;5.50;;;30.50;99.90;;;;;;5051218;28;20992;-54
2021/06/28 11:59:41;;;;;;;6.23;5.50;;;30.30;99.70;;;;;;5050787;28;20519;-54
2021/06/28 12:02:09;;;;;;;5.87;5.27;;;30.50;99.90;;;;;;5051106;28;20481;-54
2021/06/28 12:04:38;;;;;;;5.93;5.43;;;30.50;99.40;;;;;;5051294;28;20452;-54
2021/06/28 12:07:06;;;;;;;5.77;5.37;;;30.60;99.90;;;;;;5050305;28;20891;-55
2021/06/28 12:09:37;;;;;;;6.77;5.90;;;30.50;99.10;;;;;;5049730;28;21019;-54
2021/06/28 12:12:08;;;;;;;6.20;5.70;;;30.60;99.90;;;;;;5052655;28;20468;-55
2021/06/28 12:14:39;;;;;;;5.53;5.13;;;30.50;99.90;;;;;;5051643;28;20457;-54
2021/06/28 12:17:11;;;;;;;6.13;5.63;;;30.80;99.90;;;;;;5049972;28;20447;-54
2021/06/28 12:19:41;;;;;;;5.87;5.47;;;30.40;99.60;;;;;;5052800;28;20577;-53
2021/06/28 12:22:10;;;;;;;8.73;5.70;;;30.10;99.90;;;;;;5052631;28;20468;-54
2021/06/28 12:24:37;;;;;;;5.97;5.50;;;29.90;99.90;;;;;;5053088;28;20501;-54
2021/06/28 12:27:07;;;;;;;5.60;5.10;;;29.90;99.90;;;;;;5048840;28;20471;-56
2021/06/28 12:29:37;;;;;;;6.77;5.67;;;29.90;99.90;;;;;;5037247;28;20505;-54
2021/06/28 12:32:16;;;;;;;6.37;5.87;;;30.10;99.90;;;;;;5034038;28;20518;-53
2021/06/28 12:34:49;;;;;;;5.60;5.20;;;30.10;99.90;;;;;;5034605;28;20439;-55
2021/06/28 12:37:28;;;;;;;5.83;5.33;;;30.20;99.90;;;;;;5034778;28;20471;-54
2021/06/28 12:40:11;;;;;;;7.33;4.97;;;30.40;99.90;;;;;;5047667;28;20471;-54
2021/06/28 12:42:41;;;;;;;5.40;5.00;;;30.30;99.70;;;;;;5035398;28;20470;-55
2021/06/28 12:45:09;;;;;;;5.10;4.80;;;30.40;99.90;;;;;;5034044;28;21105;-55
2021/06/28 12:47:36;;;;;;;5.27;4.60;;;30.60;99.60;;;;;;5034129;28;20444;-54
2021/06/28 12:50:05;;;;;;;4.97;4.67;;;30.60;99.70;;;;;;5036525;28;20448;-53
2021/06/28 12:52:35;;;;;;;5.30;4.80;;;30.60;99.90;;;;;;5033676;28;20506;-55
2021/06/28 12:55:08;;;;;;;4.67;4.27;;;30.70;99.90;;;;;;5033605;28;20487;-55
2021/06/28 12:57:36;;;;;;;4.63;4.30;;;30.90;99.20;;;;;;5034053;28;20506;-54